sensor_id;sensor_type;location;lat;lon;timestamp;P1;durP1;ratioP1;P2;durP2;ratioP2
52354;SDS011;38286;51.156;17.038;2023-02-12T00:02:08;34.33;;;15.38;;
52354;SDS011;38286;51.156;17.038;2023-02-12T00:04:34;35.67;;;16.02;;
52354;SDS011;38286;51.156;17.038;2023-02-12T00:06:59;34.53;;;15.77;;
52354;SDS011;38286;51.156;17.038;2023-02-12T00:09:25;40.00;;;16.67;;
52354;SDS011;38286;51.156;17.038;2023-02-12T00:11:51;35.33;;;15.05;;
52354;SDS011;38286;51.156;17.038;2023-02-12T00:14:16;31.48;;;15.32;;
52354;SDS011;38286;51.156;17.038;2023-02-12T00:16:42;35.40;;;14.90;;
52354;SDS011;38286;51.156;17.038;2023-02-12T00:19:08;34.20;;;14.40;;
52354;SDS011;38286;51.156;17.038;2023-02-12T00:21:34;32.28;;;15.40;;
52354;SDS011;38286;51.156;17.038;2023-02-12T00:24:00;31.70;;;14.60;;
52354;SDS011;38286;51.156;17.038;2023-02-12T00:26:26;30.42;;;14.50;;
52354;SDS011;38286;51.156;17.038;2023-02-12T00:28:52;32.15;;;14.15;;
52354;SDS011;38286;51.156;17.038;2023-02-12T00:31:19;33.28;;;14.70;;
52354;SDS011;38286;51.156;17.038;2023-02-12T00:33:46;31.50;;;14.32;;
52354;SDS011;38286;51.156;17.038;2023-02-12T00:36:13;31.60;;;15.15;;
52354;SDS011;38286;51.156;17.038;2023-02-12T00:38:40;35.58;;;14.38;;
52354;SDS011;38286;51.156;17.038;2023-02-12T00:41:06;30.95;;;14.07;;
52354;SDS011;38286;51.156;17.038;2023-02-12T00:43:32;31.73;;;14.85;;
52354;SDS011;38286;51.156;17.038;2023-02-12T00:45:57;32.80;;;15.35;;
52354;SDS011;38286;51.156;17.038;2023-02-12T00:48:23;29.33;;;14.68;;
52354;SDS011;38286;51.156;17.038;2023-02-12T00:50:49;32.78;;;14.13;;
52354;SDS011;38286;51.156;17.038;2023-02-12T00:53:15;29.98;;;14.48;;
52354;SDS011;38286;51.156;17.038;2023-02-12T00:55:40;32.67;;;15.05;;
52354;SDS011;38286;51.156;17.038;2023-02-12T00:58:06;29.98;;;13.75;;
52354;SDS011;38286;51.156;17.038;2023-02-12T01:00:32;36.17;;;15.63;;
52354;SDS011;38286;51.156;17.038;2023-02-12T01:02:58;33.92;;;14.48;;
52354;SDS011;38286;51.156;17.038;2023-02-12T01:05:24;31.67;;;14.43;;
52354;SDS011;38286;51.156;17.038;2023-02-12T01:07:50;34.92;;;14.45;;
52354;SDS011;38286;51.156;17.038;2023-02-12T01:10:17;33.40;;;14.48;;
52354;SDS011;38286;51.156;17.038;2023-02-12T01:12:46;35.28;;;15.82;;
52354;SDS011;38286;51.156;17.038;2023-02-12T01:15:12;32.45;;;14.57;;
52354;SDS011;38286;51.156;17.038;2023-02-12T01:17:39;33.35;;;14.32;;
52354;SDS011;38286;51.156;17.038;2023-02-12T01:20:05;31.77;;;14.40;;
52354;SDS011;38286;51.156;17.038;2023-02-12T01:22:35;37.20;;;14.20;;
52354;SDS011;38286;51.156;17.038;2023-02-12T01:25:01;33.97;;;15.40;;
52354;SDS011;38286;51.156;17.038;2023-02-12T01:27:28;36.92;;;15.95;;
52354;SDS011;38286;51.156;17.038;2023-02-12T01:29:53;33.45;;;14.07;;
52354;SDS011;38286;51.156;17.038;2023-02-12T01:32:19;38.95;;;15.45;;
52354;SDS011;38286;51.156;17.038;2023-02-12T01:34:45;40.95;;;16.88;;
52354;SDS011;38286;51.156;17.038;2023-02-12T01:37:11;32.83;;;15.05;;
52354;SDS011;38286;51.156;17.038;2023-02-12T01:39:36;38.67;;;16.05;;
52354;SDS011;38286;51.156;17.038;2023-02-12T01:42:02;35.38;;;14.88;;
52354;SDS011;38286;51.156;17.038;2023-02-12T01:44:29;36.33;;;15.82;;
52354;SDS011;38286;51.156;17.038;2023-02-12T01:46:59;36.50;;;15.13;;
52354;SDS011;38286;51.156;17.038;2023-02-12T01:49:30;30.27;;;14.55;;
52354;SDS011;38286;51.156;17.038;2023-02-12T01:54:33;47.97;;;17.45;;
52354;SDS011;38286;51.156;17.038;2023-02-12T01:57:00;33.42;;;15.10;;
52354;SDS011;38286;51.156;17.038;2023-02-12T01:59:27;33.13;;;15.00;;
52354;SDS011;38286;51.156;17.038;2023-02-12T02:01:53;35.67;;;13.82;;
52354;SDS011;38286;51.156;17.038;2023-02-12T02:04:20;33.67;;;14.35;;
52354;SDS011;38286;51.156;17.038;2023-02-12T02:06:53;31.80;;;14.43;;
52354;SDS011;38286;51.156;17.038;2023-02-12T02:09:22;33.83;;;15.07;;
52354;SDS011;38286;51.156;17.038;2023-02-12T02:11:48;33.47;;;14.80;;
52354;SDS011;38286;51.156;17.038;2023-02-12T02:14:32;36.00;;;14.07;;
52354;SDS011;38286;51.156;17.038;2023-02-12T02:29:02;32.33;;;13.30;;
52354;SDS011;38286;51.156;17.038;2023-02-12T02:36:51;34.55;;;14.25;;
52354;SDS011;38286;51.156;17.038;2023-02-12T02:39:25;38.17;;;14.20;;
52354;SDS011;38286;51.156;17.038;2023-02-12T02:42:37;35.00;;;15.25;;
52354;SDS011;38286;51.156;17.038;2023-02-12T02:44:54;37.40;;;15.55;;
52354;SDS011;38286;51.156;17.038;2023-02-12T02:47:25;37.03;;;15.55;;
52354;SDS011;38286;51.156;17.038;2023-02-12T02:49:58;41.10;;;17.50;;
52354;SDS011;38286;51.156;17.038;2023-02-12T02:52:30;43.88;;;17.33;;
52354;SDS011;38286;51.156;17.038;2023-02-12T02:55:02;38.20;;;16.15;;
52354;SDS011;38286;51.156;17.038;2023-02-12T02:57:35;35.95;;;15.45;;
52354;SDS011;38286;51.156;17.038;2023-02-12T03:00:09;38.80;;;16.00;;
52354;SDS011;38286;51.156;17.038;2023-02-12T03:02:39;37.17;;;14.57;;
52354;SDS011;38286;51.156;17.038;2023-02-12T03:05:13;32.85;;;15.00;;
52354;SDS011;38286;51.156;17.038;2023-02-12T03:07:47;36.53;;;15.07;;
52354;SDS011;38286;51.156;17.038;2023-02-12T03:10:24;30.33;;;13.40;;
52354;SDS011;38286;51.156;17.038;2023-02-12T03:18:07;34.25;;;11.88;;
52354;SDS011;38286;51.156;17.038;2023-02-12T03:20:43;29.77;;;11.57;;
52354;SDS011;38286;51.156;17.038;2023-02-12T03:23:22;28.48;;;10.43;;
52354;SDS011;38286;51.156;17.038;2023-02-12T03:28:50;37.03;;;9.90;;
52354;SDS011;38286;51.156;17.038;2023-02-12T03:36:58;32.25;;;10.65;;
52354;SDS011;38286;51.156;17.038;2023-02-12T03:43:01;44.63;;;12.38;;
52354;SDS011;38286;51.156;17.038;2023-02-12T03:50:38;35.53;;;12.20;;
52354;SDS011;38286;51.156;17.038;2023-02-12T03:53:08;31.60;;;11.23;;
52354;SDS011;38286;51.156;17.038;2023-02-12T03:55:35;32.80;;;11.23;;
52354;SDS011;38286;51.156;17.038;2023-02-12T03:58:03;39.17;;;12.55;;
52354;SDS011;38286;51.156;17.038;2023-02-12T04:00:32;32.10;;;11.40;;
52354;SDS011;38286;51.156;17.038;2023-02-12T04:02:58;33.38;;;11.52;;
52354;SDS011;38286;51.156;17.038;2023-02-12T04:05:24;29.85;;;10.65;;
52354;SDS011;38286;51.156;17.038;2023-02-12T04:07:51;29.58;;;11.27;;
52354;SDS011;38286;51.156;17.038;2023-02-12T04:10:18;35.70;;;12.88;;
52354;SDS011;38286;51.156;17.038;2023-02-12T04:12:52;38.30;;;11.50;;
52354;SDS011;38286;51.156;17.038;2023-02-12T04:26:20;34.78;;;11.65;;
52354;SDS011;38286;51.156;17.038;2023-02-12T04:31:48;37.60;;;13.25;;
52354;SDS011;38286;51.156;17.038;2023-02-12T04:34:17;45.15;;;14.98;;
52354;SDS011;38286;51.156;17.038;2023-02-12T04:37:14;43.67;;;13.95;;
52354;SDS011;38286;51.156;17.038;2023-02-12T04:39:42;46.97;;;12.93;;
52354;SDS011;38286;51.156;17.038;2023-02-12T04:42:08;40.63;;;13.77;;
52354;SDS011;38286;51.156;17.038;2023-02-12T04:44:37;41.22;;;13.75;;
52354;SDS011;38286;51.156;17.038;2023-02-12T04:47:04;38.10;;;13.80;;
52354;SDS011;38286;51.156;17.038;2023-02-12T04:49:30;45.55;;;14.27;;
52354;SDS011;38286;51.156;17.038;2023-02-12T04:51:55;46.10;;;15.07;;
52354;SDS011;38286;51.156;17.038;2023-02-12T04:54:22;40.53;;;14.73;;
52354;SDS011;38286;51.156;17.038;2023-02-12T04:56:48;40.35;;;13.45;;
52354;SDS011;38286;51.156;17.038;2023-02-12T04:59:14;44.30;;;13.50;;
52354;SDS011;38286;51.156;17.038;2023-02-12T05:01:41;42.80;;;13.15;;
52354;SDS011;38286;51.156;17.038;2023-02-12T05:04:07;37.03;;;12.80;;
52354;SDS011;38286;51.156;17.038;2023-02-12T05:06:35;36.08;;;11.45;;
52354;SDS011;38286;51.156;17.038;2023-02-12T05:09:02;41.97;;;12.45;;
52354;SDS011;38286;51.156;17.038;2023-02-12T05:11:28;31.77;;;11.10;;
52354;SDS011;38286;51.156;17.038;2023-02-12T05:13:53;37.72;;;11.73;;
52354;SDS011;38286;51.156;17.038;2023-02-12T05:16:19;38.35;;;11.05;;
52354;SDS011;38286;51.156;17.038;2023-02-12T05:18:45;31.33;;;11.25;;
52354;SDS011;38286;51.156;17.038;2023-02-12T05:21:11;34.83;;;10.77;;
52354;SDS011;38286;51.156;17.038;2023-02-12T05:23:38;36.33;;;12.52;;
52354;SDS011;38286;51.156;17.038;2023-02-12T05:26:09;37.33;;;13.68;;
52354;SDS011;38286;51.156;17.038;2023-02-12T05:28:36;44.42;;;13.00;;
52354;SDS011;38286;51.156;17.038;2023-02-12T05:31:03;43.28;;;15.35;;
52354;SDS011;38286;51.156;17.038;2023-02-12T05:33:30;45.38;;;11.52;;
52354;SDS011;38286;51.156;17.038;2023-02-12T05:36:01;40.20;;;12.13;;
52354;SDS011;38286;51.156;17.038;2023-02-12T05:38:31;31.27;;;10.15;;
52354;SDS011;38286;51.156;17.038;2023-02-12T05:41:03;32.80;;;10.38;;
52354;SDS011;38286;51.156;17.038;2023-02-12T05:43:41;30.70;;;11.35;;
52354;SDS011;38286;51.156;17.038;2023-02-12T05:46:07;38.88;;;11.05;;
52354;SDS011;38286;51.156;17.038;2023-02-12T05:48:37;39.03;;;11.18;;
52354;SDS011;38286;51.156;17.038;2023-02-12T05:53:30;38.53;;;11.02;;
52354;SDS011;38286;51.156;17.038;2023-02-12T05:56:05;39.70;;;10.73;;
52354;SDS011;38286;51.156;17.038;2023-02-12T05:58:34;45.53;;;12.82;;
52354;SDS011;38286;51.156;17.038;2023-02-12T06:00:59;37.55;;;12.40;;
52354;SDS011;38286;51.156;17.038;2023-02-12T06:03:25;40.92;;;11.63;;
52354;SDS011;38286;51.156;17.038;2023-02-12T06:05:51;39.95;;;11.45;;
52354;SDS011;38286;51.156;17.038;2023-02-12T06:08:17;34.78;;;11.77;;
52354;SDS011;38286;51.156;17.038;2023-02-12T06:10:42;32.92;;;11.93;;
52354;SDS011;38286;51.156;17.038;2023-02-12T06:13:08;43.13;;;12.25;;
52354;SDS011;38286;51.156;17.038;2023-02-12T06:15:37;41.40;;;11.05;;
52354;SDS011;38286;51.156;17.038;2023-02-12T06:18:02;34.20;;;11.57;;
52354;SDS011;38286;51.156;17.038;2023-02-12T06:20:28;38.58;;;11.52;;
52354;SDS011;38286;51.156;17.038;2023-02-12T06:22:54;34.55;;;11.32;;
52354;SDS011;38286;51.156;17.038;2023-02-12T06:25:20;42.33;;;11.38;;
52354;SDS011;38286;51.156;17.038;2023-02-12T06:27:45;32.10;;;10.35;;
52354;SDS011;38286;51.156;17.038;2023-02-12T06:30:11;33.53;;;11.10;;
52354;SDS011;38286;51.156;17.038;2023-02-12T06:32:37;31.05;;;10.35;;
52354;SDS011;38286;51.156;17.038;2023-02-12T06:35:03;31.88;;;10.95;;
52354;SDS011;38286;51.156;17.038;2023-02-12T06:37:29;32.58;;;11.27;;
52354;SDS011;38286;51.156;17.038;2023-02-12T06:39:54;34.15;;;10.57;;
52354;SDS011;38286;51.156;17.038;2023-02-12T06:42:20;38.45;;;11.20;;
52354;SDS011;38286;51.156;17.038;2023-02-12T06:44:45;32.72;;;11.52;;
52354;SDS011;38286;51.156;17.038;2023-02-12T06:47:12;34.15;;;10.90;;
52354;SDS011;38286;51.156;17.038;2023-02-12T06:49:38;33.50;;;11.13;;
52354;SDS011;38286;51.156;17.038;2023-02-12T06:52:04;40.92;;;12.65;;
52354;SDS011;38286;51.156;17.038;2023-02-12T06:54:29;39.20;;;11.82;;
52354;SDS011;38286;51.156;17.038;2023-02-12T06:56:55;41.22;;;12.77;;
52354;SDS011;38286;51.156;17.038;2023-02-12T06:59:20;38.22;;;11.82;;
52354;SDS011;38286;51.156;17.038;2023-02-12T07:01:46;38.00;;;11.90;;
52354;SDS011;38286;51.156;17.038;2023-02-12T07:04:12;32.95;;;12.32;;
52354;SDS011;38286;51.156;17.038;2023-02-12T07:06:38;40.55;;;12.32;;
52354;SDS011;38286;51.156;17.038;2023-02-12T07:09:04;37.33;;;11.77;;
52354;SDS011;38286;51.156;17.038;2023-02-12T07:11:32;40.47;;;11.82;;
52354;SDS011;38286;51.156;17.038;2023-02-12T07:13:59;43.13;;;12.90;;
52354;SDS011;38286;51.156;17.038;2023-02-12T07:16:25;43.47;;;14.05;;
52354;SDS011;38286;51.156;17.038;2023-02-12T07:18:51;41.58;;;13.20;;
52354;SDS011;38286;51.156;17.038;2023-02-12T07:21:17;37.95;;;13.30;;
52354;SDS011;38286;51.156;17.038;2023-02-12T07:23:46;40.67;;;13.07;;
52354;SDS011;38286;51.156;17.038;2023-02-12T07:26:13;37.80;;;13.98;;
52354;SDS011;38286;51.156;17.038;2023-02-12T07:28:41;51.53;;;14.13;;
52354;SDS011;38286;51.156;17.038;2023-02-12T07:31:12;38.72;;;13.20;;
52354;SDS011;38286;51.156;17.038;2023-02-12T07:33:39;37.45;;;12.55;;
52354;SDS011;38286;51.156;17.038;2023-02-12T07:36:07;43.08;;;12.88;;
52354;SDS011;38286;51.156;17.038;2023-02-12T07:38:34;34.10;;;12.05;;
52354;SDS011;38286;51.156;17.038;2023-02-12T07:41:14;36.95;;;12.80;;
52354;SDS011;38286;51.156;17.038;2023-02-12T07:43:41;37.05;;;12.50;;
52354;SDS011;38286;51.156;17.038;2023-02-12T07:46:08;40.53;;;12.80;;
52354;SDS011;38286;51.156;17.038;2023-02-12T07:48:37;39.85;;;13.05;;
52354;SDS011;38286;51.156;17.038;2023-02-12T07:51:06;37.30;;;11.90;;
52354;SDS011;38286;51.156;17.038;2023-02-12T07:53:33;42.20;;;12.80;;
52354;SDS011;38286;51.156;17.038;2023-02-12T07:56:03;36.58;;;12.15;;
52354;SDS011;38286;51.156;17.038;2023-02-12T07:58:38;38.47;;;12.52;;
52354;SDS011;38286;51.156;17.038;2023-02-12T08:03:42;42.50;;;13.30;;
52354;SDS011;38286;51.156;17.038;2023-02-12T08:06:12;36.58;;;11.65;;
52354;SDS011;38286;51.156;17.038;2023-02-12T08:08:40;36.90;;;12.35;;
52354;SDS011;38286;51.156;17.038;2023-02-12T08:11:06;35.35;;;11.98;;
52354;SDS011;38286;51.156;17.038;2023-02-12T08:13:33;38.38;;;12.00;;
52354;SDS011;38286;51.156;17.038;2023-02-12T08:16:00;34.58;;;12.20;;
52354;SDS011;38286;51.156;17.038;2023-02-12T08:18:27;32.28;;;10.75;;
52354;SDS011;38286;51.156;17.038;2023-02-12T08:20:54;31.70;;;11.65;;
52354;SDS011;38286;51.156;17.038;2023-02-12T08:23:19;34.90;;;11.05;;
52354;SDS011;38286;51.156;17.038;2023-02-12T08:25:45;37.17;;;11.45;;
52354;SDS011;38286;51.156;17.038;2023-02-12T08:28:11;32.85;;;11.30;;
52354;SDS011;38286;51.156;17.038;2023-02-12T08:30:36;32.03;;;11.15;;
52354;SDS011;38286;51.156;17.038;2023-02-12T08:33:02;32.72;;;11.60;;
52354;SDS011;38286;51.156;17.038;2023-02-12T08:35:28;35.78;;;11.02;;
52354;SDS011;38286;51.156;17.038;2023-02-12T08:37:53;36.05;;;11.13;;
52354;SDS011;38286;51.156;17.038;2023-02-12T08:40:19;36.42;;;12.15;;
52354;SDS011;38286;51.156;17.038;2023-02-12T08:42:45;32.30;;;10.45;;
52354;SDS011;38286;51.156;17.038;2023-02-12T08:45:11;30.08;;;10.90;;
52354;SDS011;38286;51.156;17.038;2023-02-12T08:47:36;35.97;;;11.43;;
52354;SDS011;38286;51.156;17.038;2023-02-12T08:50:02;40.67;;;12.13;;
52354;SDS011;38286;51.156;17.038;2023-02-12T08:52:27;35.38;;;11.63;;
52354;SDS011;38286;51.156;17.038;2023-02-12T08:54:53;34.38;;;10.95;;
52354;SDS011;38286;51.156;17.038;2023-02-12T08:57:22;31.98;;;11.35;;
52354;SDS011;38286;51.156;17.038;2023-02-12T08:59:48;32.08;;;11.50;;
52354;SDS011;38286;51.156;17.038;2023-02-12T09:02:13;31.40;;;10.93;;
52354;SDS011;38286;51.156;17.038;2023-02-12T09:04:39;32.40;;;11.55;;
52354;SDS011;38286;51.156;17.038;2023-02-12T09:07:05;33.15;;;10.48;;
52354;SDS011;38286;51.156;17.038;2023-02-12T09:09:30;35.55;;;9.98;;
52354;SDS011;38286;51.156;17.038;2023-02-12T09:11:56;34.83;;;10.68;;
52354;SDS011;38286;51.156;17.038;2023-02-12T09:14:22;35.40;;;10.27;;
52354;SDS011;38286;51.156;17.038;2023-02-12T09:16:48;24.63;;;9.77;;
52354;SDS011;38286;51.156;17.038;2023-02-12T09:19:14;31.60;;;9.93;;
52354;SDS011;38286;51.156;17.038;2023-02-12T09:21:40;25.15;;;10.80;;
52354;SDS011;38286;51.156;17.038;2023-02-12T09:24:06;27.92;;;10.80;;
52354;SDS011;38286;51.156;17.038;2023-02-12T09:26:32;30.45;;;9.75;;
52354;SDS011;38286;51.156;17.038;2023-02-12T09:29:00;29.25;;;10.38;;
52354;SDS011;38286;51.156;17.038;2023-02-12T09:31:26;37.97;;;11.40;;
52354;SDS011;38286;51.156;17.038;2023-02-12T09:33:54;29.35;;;10.02;;
52354;SDS011;38286;51.156;17.038;2023-02-12T09:36:23;33.22;;;10.43;;
52354;SDS011;38286;51.156;17.038;2023-02-12T09:38:49;34.50;;;10.00;;
52354;SDS011;38286;51.156;17.038;2023-02-12T09:44:24;32.40;;;10.40;;
52354;SDS011;38286;51.156;17.038;2023-02-12T09:46:59;37.72;;;10.68;;
52354;SDS011;38286;51.156;17.038;2023-02-12T09:49:41;38.88;;;10.40;;
52354;SDS011;38286;51.156;17.038;2023-02-12T09:52:13;27.98;;;9.00;;
52354;SDS011;38286;51.156;17.038;2023-02-12T09:54:41;24.77;;;9.38;;
52354;SDS011;38286;51.156;17.038;2023-02-12T09:59:45;32.28;;;10.43;;
52354;SDS011;38286;51.156;17.038;2023-02-12T10:02:14;28.48;;;11.23;;
52354;SDS011;38286;51.156;17.038;2023-02-12T10:04:41;38.00;;;11.45;;
52354;SDS011;38286;51.156;17.038;2023-02-12T10:07:13;33.78;;;11.15;;
52354;SDS011;38286;51.156;17.038;2023-02-12T10:10:08;39.38;;;11.88;;
52354;SDS011;38286;51.156;17.038;2023-02-12T10:15:31;30.48;;;10.05;;
52354;SDS011;38286;51.156;17.038;2023-02-12T10:21:00;26.30;;;9.93;;
52354;SDS011;38286;51.156;17.038;2023-02-12T10:23:43;25.02;;;9.05;;
52354;SDS011;38286;51.156;17.038;2023-02-12T10:26:30;25.67;;;9.85;;
52354;SDS011;38286;51.156;17.038;2023-02-12T10:29:12;23.35;;;9.35;;
52354;SDS011;38286;51.156;17.038;2023-02-12T10:31:43;29.55;;;9.85;;
52354;SDS011;38286;51.156;17.038;2023-02-12T10:34:14;27.77;;;8.45;;
52354;SDS011;38286;51.156;17.038;2023-02-12T10:36:46;21.27;;;8.40;;
52354;SDS011;38286;51.156;17.038;2023-02-12T10:39:25;23.02;;;8.55;;
52354;SDS011;38286;51.156;17.038;2023-02-12T10:42:06;23.35;;;8.98;;
52354;SDS011;38286;51.156;17.038;2023-02-12T10:44:36;26.58;;;8.77;;
52354;SDS011;38286;51.156;17.038;2023-02-12T10:47:01;24.35;;;8.70;;
52354;SDS011;38286;51.156;17.038;2023-02-12T10:49:27;25.95;;;9.13;;
52354;SDS011;38286;51.156;17.038;2023-02-12T10:54:37;20.52;;;8.43;;
52354;SDS011;38286;51.156;17.038;2023-02-12T10:57:11;22.75;;;8.50;;
52354;SDS011;38286;51.156;17.038;2023-02-12T10:59:49;22.90;;;9.80;;
52354;SDS011;38286;51.156;17.038;2023-02-12T11:02:34;20.55;;;7.82;;
52354;SDS011;38286;51.156;17.038;2023-02-12T11:05:14;19.00;;;8.07;;
52354;SDS011;38286;51.156;17.038;2023-02-12T11:07:48;20.50;;;6.45;;
52354;SDS011;38286;51.156;17.038;2023-02-12T11:10:19;20.52;;;5.78;;
52354;SDS011;38286;51.156;17.038;2023-02-12T11:12:45;14.60;;;5.70;;
52354;SDS011;38286;51.156;17.038;2023-02-12T11:15:21;13.73;;;5.40;;
52354;SDS011;38286;51.156;17.038;2023-02-12T11:17:59;15.88;;;6.28;;
52354;SDS011;38286;51.156;17.038;2023-02-12T11:20:31;13.50;;;5.25;;
52354;SDS011;38286;51.156;17.038;2023-02-12T11:22:58;15.70;;;5.82;;
52354;SDS011;38286;51.156;17.038;2023-02-12T11:25:30;14.93;;;6.05;;
52354;SDS011;38286;51.156;17.038;2023-02-12T11:28:04;17.98;;;6.22;;
52354;SDS011;38286;51.156;17.038;2023-02-12T11:30:56;17.05;;;6.28;;
52354;SDS011;38286;51.156;17.038;2023-02-12T11:33:24;16.98;;;6.15;;
52354;SDS011;38286;51.156;17.038;2023-02-12T11:35:53;20.35;;;6.32;;
52354;SDS011;38286;51.156;17.038;2023-02-12T11:38:46;17.15;;;5.65;;
52354;SDS011;38286;51.156;17.038;2023-02-12T11:43:55;15.55;;;5.50;;
52354;SDS011;38286;51.156;17.038;2023-02-12T11:46:22;15.13;;;5.45;;
52354;SDS011;38286;51.156;17.038;2023-02-12T11:48:49;17.98;;;5.82;;
52354;SDS011;38286;51.156;17.038;2023-02-12T11:51:19;16.17;;;5.43;;
52354;SDS011;38286;51.156;17.038;2023-02-12T11:53:47;15.25;;;5.45;;
52354;SDS011;38286;51.156;17.038;2023-02-12T11:56:15;19.08;;;6.45;;
52354;SDS011;38286;51.156;17.038;2023-02-12T11:58:41;15.55;;;5.40;;
52354;SDS011;38286;51.156;17.038;2023-02-12T12:01:26;13.27;;;4.85;;
52354;SDS011;38286;51.156;17.038;2023-02-12T12:04:05;16.52;;;5.60;;
52354;SDS011;38286;51.156;17.038;2023-02-12T12:12:02;15.95;;;5.93;;
52354;SDS011;38286;51.156;17.038;2023-02-12T12:14:41;20.88;;;5.32;;
52354;SDS011;38286;51.156;17.038;2023-02-12T12:17:35;15.48;;;5.35;;
52354;SDS011;38286;51.156;17.038;2023-02-12T12:20:22;18.45;;;5.43;;
52354;SDS011;38286;51.156;17.038;2023-02-12T12:25:48;14.95;;;5.28;;
52354;SDS011;38286;51.156;17.038;2023-02-12T12:44:34;16.58;;;5.20;;
52354;SDS011;38286;51.156;17.038;2023-02-12T12:50:03;17.13;;;5.10;;
52354;SDS011;38286;51.156;17.038;2023-02-12T13:14:32;13.68;;;3.83;;
52354;SDS011;38286;51.156;17.038;2023-02-12T13:27:52;12.20;;;3.40;;
52354;SDS011;38286;51.156;17.038;2023-02-12T13:30:29;14.50;;;3.47;;
52354;SDS011;38286;51.156;17.038;2023-02-12T13:33:03;10.75;;;3.60;;
52354;SDS011;38286;51.156;17.038;2023-02-12T13:35:44;11.25;;;3.55;;
52354;SDS011;38286;51.156;17.038;2023-02-12T13:38:14;16.00;;;3.85;;
52354;SDS011;38286;51.156;17.038;2023-02-12T13:40:43;8.32;;;3.25;;
52354;SDS011;38286;51.156;17.038;2023-02-12T13:51:43;11.25;;;3.78;;
52354;SDS011;38286;51.156;17.038;2023-02-12T13:56:45;13.10;;;3.30;;
52354;SDS011;38286;51.156;17.038;2023-02-12T14:02:09;12.70;;;3.10;;
52354;SDS011;38286;51.156;17.038;2023-02-12T14:04:56;14.15;;;3.28;;
52354;SDS011;38286;51.156;17.038;2023-02-12T14:10:31;13.07;;;5.25;;
52354;SDS011;38286;51.156;17.038;2023-02-12T14:13:14;12.70;;;3.33;;
52354;SDS011;38286;51.156;17.038;2023-02-12T14:15:42;13.50;;;3.33;;
52354;SDS011;38286;51.156;17.038;2023-02-12T14:18:30;13.20;;;3.25;;
52354;SDS011;38286;51.156;17.038;2023-02-12T14:21:43;7.82;;;2.50;;
52354;SDS011;38286;51.156;17.038;2023-02-12T14:24:39;10.68;;;3.00;;
52354;SDS011;38286;51.156;17.038;2023-02-12T14:27:00;11.98;;;3.30;;
52354;SDS011;38286;51.156;17.038;2023-02-12T14:29:27;9.32;;;2.83;;
52354;SDS011;38286;51.156;17.038;2023-02-12T14:31:53;10.43;;;3.05;;
52354;SDS011;38286;51.156;17.038;2023-02-12T14:36:46;5.90;;;2.35;;
52354;SDS011;38286;51.156;17.038;2023-02-12T14:41:45;9.23;;;3.20;;
52354;SDS011;38286;51.156;17.038;2023-02-12T14:46:52;7.70;;;2.97;;
52354;SDS011;38286;51.156;17.038;2023-02-12T14:49:20;10.90;;;3.67;;
52354;SDS011;38286;51.156;17.038;2023-02-12T14:51:59;13.32;;;4.35;;
52354;SDS011;38286;51.156;17.038;2023-02-12T14:54:30;15.05;;;4.07;;
52354;SDS011;38286;51.156;17.038;2023-02-12T14:57:05;13.98;;;4.22;;
52354;SDS011;38286;51.156;17.038;2023-02-12T14:59:36;15.55;;;4.63;;
52354;SDS011;38286;51.156;17.038;2023-02-12T15:02:04;13.55;;;3.60;;
52354;SDS011;38286;51.156;17.038;2023-02-12T15:04:32;11.50;;;3.17;;
52354;SDS011;38286;51.156;17.038;2023-02-12T15:07:06;9.65;;;3.17;;
52354;SDS011;38286;51.156;17.038;2023-02-12T15:09:36;12.88;;;3.15;;
52354;SDS011;38286;51.156;17.038;2023-02-12T15:12:16;15.40;;;4.03;;
52354;SDS011;38286;51.156;17.038;2023-02-12T15:14:47;10.15;;;3.95;;
52354;SDS011;38286;51.156;17.038;2023-02-12T15:17:25;15.38;;;5.40;;
52354;SDS011;38286;51.156;17.038;2023-02-12T15:19:56;16.52;;;4.60;;
52354;SDS011;38286;51.156;17.038;2023-02-12T15:22:41;17.13;;;4.47;;
52354;SDS011;38286;51.156;17.038;2023-02-12T15:27:40;13.48;;;4.10;;
52354;SDS011;38286;51.156;17.038;2023-02-12T15:30:13;11.27;;;3.88;;
52354;SDS011;38286;51.156;17.038;2023-02-12T15:32:43;9.52;;;3.67;;
52354;SDS011;38286;51.156;17.038;2023-02-12T15:37:56;12.70;;;4.32;;
52354;SDS011;38286;51.156;17.038;2023-02-12T15:40:24;16.25;;;4.25;;
52354;SDS011;38286;51.156;17.038;2023-02-12T15:42:57;13.10;;;3.97;;
52354;SDS011;38286;51.156;17.038;2023-02-12T15:50:45;14.98;;;4.43;;
52354;SDS011;38286;51.156;17.038;2023-02-12T15:53:16;17.83;;;5.05;;
52354;SDS011;38286;51.156;17.038;2023-02-12T15:55:43;13.95;;;3.85;;
52354;SDS011;38286;51.156;17.038;2023-02-12T15:58:21;18.08;;;5.05;;
52354;SDS011;38286;51.156;17.038;2023-02-12T16:00:47;21.65;;;5.18;;
52354;SDS011;38286;51.156;17.038;2023-02-12T16:05:51;15.27;;;5.55;;
52354;SDS011;38286;51.156;17.038;2023-02-12T16:08:20;14.77;;;4.97;;
52354;SDS011;38286;51.156;17.038;2023-02-12T16:10:48;19.40;;;5.32;;
52354;SDS011;38286;51.156;17.038;2023-02-12T16:13:18;16.80;;;5.03;;
52354;SDS011;38286;51.156;17.038;2023-02-12T16:18:36;23.75;;;6.40;;
52354;SDS011;38286;51.156;17.038;2023-02-12T16:21:09;17.33;;;6.07;;
52354;SDS011;38286;51.156;17.038;2023-02-12T16:23:41;23.73;;;6.35;;
52354;SDS011;38286;51.156;17.038;2023-02-12T16:26:11;15.18;;;5.10;;
52354;SDS011;38286;51.156;17.038;2023-02-12T16:28:44;18.67;;;6.30;;
52354;SDS011;38286;51.156;17.038;2023-02-12T16:31:13;14.85;;;5.40;;
52354;SDS011;38286;51.156;17.038;2023-02-12T16:36:06;14.18;;;4.65;;
52354;SDS011;38286;51.156;17.038;2023-02-12T16:38:43;21.42;;;5.05;;
52354;SDS011;38286;51.156;17.038;2023-02-12T16:43:45;13.40;;;5.35;;
52354;SDS011;38286;51.156;17.038;2023-02-12T16:46:12;19.73;;;6.97;;
52354;SDS011;38286;51.156;17.038;2023-02-12T16:48:40;22.75;;;6.68;;
52354;SDS011;38286;51.156;17.038;2023-02-12T16:51:19;23.05;;;7.05;;
52354;SDS011;38286;51.156;17.038;2023-02-12T16:53:49;22.00;;;7.80;;
52354;SDS011;38286;51.156;17.038;2023-02-12T16:56:18;23.83;;;7.70;;
52354;SDS011;38286;51.156;17.038;2023-02-12T16:58:46;18.45;;;7.15;;
52354;SDS011;38286;51.156;17.038;2023-02-12T17:01:18;22.55;;;7.45;;
52354;SDS011;38286;51.156;17.038;2023-02-12T17:03:51;18.08;;;8.02;;
52354;SDS011;38286;51.156;17.038;2023-02-12T17:06:18;18.52;;;8.10;;
52354;SDS011;38286;51.156;17.038;2023-02-12T17:08:48;22.73;;;8.27;;
52354;SDS011;38286;51.156;17.038;2023-02-12T17:11:14;17.02;;;7.03;;
52354;SDS011;38286;51.156;17.038;2023-02-12T17:13:43;20.10;;;8.35;;
52354;SDS011;38286;51.156;17.038;2023-02-12T17:16:12;21.02;;;8.10;;
52354;SDS011;38286;51.156;17.038;2023-02-12T17:18:38;17.42;;;7.97;;
52354;SDS011;38286;51.156;17.038;2023-02-12T17:21:05;23.75;;;8.23;;
52354;SDS011;38286;51.156;17.038;2023-02-12T17:23:33;17.67;;;7.30;;
52354;SDS011;38286;51.156;17.038;2023-02-12T17:25:59;20.60;;;7.97;;
52354;SDS011;38286;51.156;17.038;2023-02-12T17:28:25;19.52;;;7.70;;
52354;SDS011;38286;51.156;17.038;2023-02-12T17:30:51;18.30;;;7.20;;
52354;SDS011;38286;51.156;17.038;2023-02-12T17:33:17;16.25;;;7.80;;